createdAt,value
2019-02-11T00:02:59.871Z,42.77
2019-02-11T00:07:07.310Z,51.03
2019-02-11T00:11:15.012Z,43.80
2019-02-11T00:15:22.508Z,44.80
2019-02-11T00:19:29.908Z,46.50
2019-02-11T00:23:37.493Z,48.13
2019-02-11T00:27:46.380Z,46.20
2019-02-11T00:31:53.947Z,39.87
2019-02-11T00:36:01.838Z,41.87
2019-02-11T00:40:09.767Z,41.63
2019-02-11T00:44:17.152Z,45.27
2019-02-11T00:48:25.058Z,43.83
2019-02-11T00:52:32.651Z,43.73
2019-02-11T00:56:40.552Z,43.27
2019-02-11T01:00:48.155Z,44.73
2019-02-11T01:04:55.561Z,41.50
2019-02-11T01:09:04.478Z,45.03
2019-02-11T01:13:12.370Z,50.30
2019-02-11T01:17:19.974Z,49.57
2019-02-11T01:21:27.862Z,48.77
2019-02-11T01:25:35.785Z,46.07
2019-02-11T01:29:43.151Z,51.23
2019-02-11T01:33:51.048Z,49.53
2019-02-11T01:37:58.664Z,48.03
2019-02-11T01:42:06.174Z,47.30
2019-02-11T01:46:14.084Z,62.00
2019-02-11T01:50:21.474Z,46.13
2019-02-11T01:54:28.888Z,44.83
2019-02-11T01:58:36.779Z,51.90
2019-02-11T02:02:44.183Z,54.93
2019-02-11T02:06:52.065Z,44.97
2019-02-11T02:10:59.940Z,46.27
2019-02-11T02:15:07.682Z,52.43
2019-02-11T02:19:15.139Z,43.70
2019-02-11T02:23:22.627Z,48.03
2019-02-11T02:27:29.996Z,43.67
2019-02-11T02:31:37.895Z,44.17
2019-02-11T02:35:45.779Z,43.83
2019-02-11T02:39:53.158Z,42.30
2019-02-11T02:44:01.052Z,46.87
2019-02-11T02:48:08.956Z,48.10
2019-02-11T02:52:16.341Z,47.23
2019-02-11T02:56:24.222Z,46.50
2019-02-11T03:00:31.718Z,47.30
2019-02-11T03:04:39.100Z,50.83
2019-02-11T03:08:46.675Z,47.17
2019-02-11T03:12:54.166Z,50.37
2019-02-11T03:17:01.659Z,54.47
2019-02-11T03:21:10.010Z,51.83
2019-02-11T03:25:17.509Z,49.00
2019-02-11T03:29:25.399Z,53.40
2019-02-11T03:33:33.287Z,51.70
2019-02-11T03:37:40.687Z,54.40
2019-02-11T03:41:48.598Z,55.00
2019-02-11T03:45:56.479Z,50.83
2019-02-11T03:50:04.010Z,50.80
2019-02-11T03:54:12.183Z,54.33
2019-02-11T03:58:20.180Z,52.23
2019-02-11T04:02:27.548Z,50.63
2019-02-11T04:06:35.443Z,55.50
2019-02-11T06:56:12.724Z,56.20
2019-02-11T07:00:21.340Z,56.27
2019-02-11T07:04:29.550Z,48.73
2019-02-11T07:08:37.114Z,45.60
2019-02-11T07:12:45.421Z,45.77
2019-02-11T07:16:53.605Z,58.40
2019-02-11T07:21:01.423Z,56.50
2019-02-11T07:25:09.990Z,81.87
2019-02-11T07:29:18.314Z,53.73
2019-02-11T07:33:26.512Z,93.50
2019-02-11T07:37:34.888Z,57.87
2019-02-11T07:42:02.517Z,57.67
2019-02-11T07:46:27.297Z,47.90
2019-02-11T07:50:35.629Z,57.00
2019-02-11T07:54:44.114Z,54.37
2019-02-11T07:58:51.914Z,45.33
2019-02-11T08:03:00.516Z,53.53
2019-02-11T08:07:08.599Z,52.07
2019-02-11T08:11:20.267Z,46.33
2019-02-11T08:15:28.585Z,45.10
2019-02-11T08:19:36.801Z,45.40
2019-02-11T08:23:44.568Z,43.00
2019-02-11T08:27:54.781Z,47.93
2019-02-11T08:32:03.039Z,42.30
2019-02-11T08:36:11.087Z,63.10
2019-02-11T08:40:18.820Z,36.23
2019-02-11T08:44:26.631Z,39.10
2019-02-11T08:48:34.663Z,49.77
2019-02-11T08:52:42.867Z,36.57
2019-02-11T08:56:50.465Z,44.47
2019-02-11T09:00:58.886Z,39.43
2019-02-11T09:05:08.034Z,38.40
2019-02-11T09:09:15.942Z,39.40
2019-02-11T09:13:24.070Z,43.03
2019-02-11T09:17:31.867Z,41.40
2019-02-11T09:21:39.468Z,39.50
2019-02-11T09:25:47.381Z,34.13
2019-02-11T09:29:55.285Z,36.03
2019-02-11T09:34:02.910Z,30.67
2019-02-11T09:38:11.222Z,39.33
2019-02-11T09:42:18.922Z,33.10
2019-02-11T09:46:26.647Z,34.17
2019-02-11T09:50:37.928Z,29.67
2019-02-11T09:54:46.321Z,31.50
2019-02-11T09:58:54.415Z,34.80
2019-02-11T10:03:02.467Z,32.30
2019-02-11T10:07:10.092Z,30.80
2019-02-11T10:11:17.912Z,37.57
2019-02-11T10:15:25.821Z,32.03
2019-02-11T10:19:33.427Z,29.00
2019-02-11T10:23:41.726Z,27.83
2019-02-11T10:27:49.704Z,27.63
2019-02-11T10:31:57.663Z,33.97
2019-02-11T10:36:05.592Z,34.17
2019-02-11T10:40:13.972Z,29.80
2019-02-11T10:44:21.570Z,28.13
2019-02-11T10:48:30.475Z,73.07
2019-02-11T10:52:38.021Z,28.43
2019-02-11T10:56:51.956Z,25.27
2019-02-11T11:01:00.093Z,25.37
2019-02-11T11:05:08.822Z,18.70
2019-02-11T11:09:17.416Z,18.40
2019-02-11T11:13:27.563Z,23.07
2019-02-11T11:17:35.484Z,23.73
2019-02-11T11:21:44.303Z,21.30
2019-02-11T11:25:52.689Z,23.83
2019-02-11T11:30:00.468Z,19.83
2019-02-11T11:34:08.311Z,18.93
2019-02-11T11:38:16.408Z,18.97
2019-02-11T11:42:24.639Z,19.47
2019-02-11T11:46:46.735Z,17.53
2019-02-11T11:50:47.934Z,19.17
2019-02-11T11:54:55.863Z,16.80
2019-02-11T11:59:04.022Z,19.93
2019-02-11T12:03:11.728Z,21.50
2019-02-11T12:07:19.933Z,19.87
2019-02-11T12:11:28.149Z,15.70
2019-02-11T12:15:36.006Z,20.83
2019-02-11T12:19:44.308Z,16.40
2019-02-11T12:23:52.506Z,29.27
2019-02-11T12:28:00.219Z,29.27
2019-02-11T12:32:08.430Z,16.43
2019-02-11T12:36:16.751Z,10.93
2019-02-11T12:40:24.458Z,14.23
2019-02-11T12:44:32.372Z,17.67
2019-02-11T12:48:40.188Z,19.53
2019-02-11T12:52:48.714Z,16.43
2019-02-11T12:56:56.928Z,22.30
2019-02-11T13:01:05.086Z,15.60
2019-02-11T13:05:12.802Z,15.60
2019-02-11T13:09:20.755Z,20.27
2019-02-11T13:13:28.592Z,17.43
2019-02-11T13:17:36.400Z,18.30
2019-02-11T13:21:44.206Z,17.93
2019-02-11T13:25:52.014Z,21.43
2019-02-11T13:29:59.881Z,19.80
2019-02-11T13:34:07.826Z,26.23
2019-02-11T13:38:15.849Z,15.00
2019-02-11T13:42:24.184Z,18.70
2019-02-11T13:46:31.965Z,21.93
2019-02-11T13:50:39.634Z,20.23
2019-02-11T13:54:47.585Z,23.33
2019-02-11T13:58:55.615Z,22.70
2019-02-11T14:03:04.773Z,18.67
2019-02-11T14:07:14.939Z,24.70
2019-02-11T14:11:22.852Z,20.90
2019-02-11T14:15:30.649Z,22.13
2019-02-11T14:19:38.693Z,27.37
2019-02-11T14:23:46.977Z,24.83
2019-02-11T14:27:55.239Z,26.00
2019-02-11T14:32:03.520Z,34.97
2019-02-11T14:36:13.484Z,33.37
2019-02-11T14:40:23.299Z,27.57
2019-02-11T14:44:34.809Z,26.57
2019-02-11T14:48:46.019Z,28.00
2019-02-11T14:52:57.548Z,35.53
2019-02-11T14:57:05.745Z,30.83
2019-02-11T15:01:14.064Z,33.80
2019-02-11T15:05:21.869Z,34.40
2019-02-11T15:09:30.193Z,40.20
2019-02-11T15:13:37.744Z,33.47
2019-02-11T15:17:45.491Z,37.10
2019-02-11T15:21:53.723Z,48.17
2019-02-11T15:26:01.440Z,79.30
2019-02-11T15:30:11.622Z,49.53
2019-02-11T15:34:20.310Z,59.23
2019-02-11T15:38:28.144Z,78.70
2019-02-11T15:42:36.366Z,99.03
2019-02-11T15:46:44.468Z,76.30
2019-02-11T15:50:52.180Z,60.17
2019-02-11T15:55:00.401Z,65.43
2019-02-11T15:59:09.285Z,82.10
2019-02-11T16:03:17.048Z,126.13
2019-02-11T16:07:25.315Z,83.23
2019-02-11T16:11:33.489Z,77.13
2019-02-11T16:15:40.986Z,78.97
2019-02-11T16:19:48.938Z,119.97
2019-02-11T16:23:56.921Z,95.83
2019-02-11T16:28:04.833Z,79.50
2019-02-11T16:32:16.077Z,87.07
2019-02-11T16:36:23.968Z,60.50
2019-02-11T16:40:31.654Z,76.10
2019-02-11T16:44:39.573Z,70.63
2019-02-11T16:48:47.276Z,67.77
2019-02-11T16:52:55.179Z,66.00
2019-02-11T16:57:03.108Z,71.60
2019-02-11T17:01:10.829Z,69.73
2019-02-11T17:05:18.530Z,76.87
2019-02-11T17:09:31.416Z,105.07
2019-02-11T17:13:39.238Z,101.13
2019-02-11T17:17:47.271Z,86.53
2019-02-11T17:21:55.081Z,260.20
2019-02-11T17:26:02.776Z,131.80
2019-02-11T17:30:13.774Z,74.57
2019-02-11T17:34:22.042Z,61.53
2019-02-11T17:38:29.798Z,55.93
2019-02-11T17:42:38.031Z,49.43
2019-02-11T17:46:46.032Z,52.53
2019-02-11T17:50:53.836Z,64.70
2019-02-11T17:55:02.171Z,75.37
2019-02-11T17:59:10.512Z,65.67
2019-02-11T18:03:18.285Z,60.97
2019-02-11T18:07:26.215Z,99.33
2019-02-11T18:11:34.024Z,79.60
2019-02-11T18:15:42.188Z,54.90
2019-02-11T18:19:50.156Z,71.53
2019-02-11T18:23:57.769Z,56.63
2019-02-11T18:28:06.079Z,51.53
2019-02-11T18:32:15.008Z,74.63
2019-02-11T18:36:22.466Z,68.40
2019-02-11T18:40:30.432Z,61.07
2019-02-11T18:44:38.352Z,62.23
2019-02-11T18:48:46.065Z,61.67
2019-02-11T18:52:53.966Z,55.70
2019-02-11T18:57:01.886Z,72.57
2019-02-11T19:01:09.676Z,55.00
2019-02-11T19:05:18.534Z,61.40
2019-02-11T19:09:26.351Z,59.90
2019-02-11T19:13:34.085Z,67.63
2019-02-11T19:17:42.349Z,59.00
2019-02-11T19:21:49.987Z,76.77
2019-02-11T19:25:58.388Z,52.23
2019-02-11T19:30:08.268Z,65.57
2019-02-11T19:34:16.881Z,62.27
2019-02-11T19:38:25.218Z,61.07
2019-02-11T19:42:33.847Z,62.47
2019-02-11T19:46:41.649Z,56.53
2019-02-11T19:50:49.984Z,87.63
2019-02-11T19:54:58.076Z,74.33
2019-02-11T19:59:06.040Z,207.40
2019-02-11T20:03:15.544Z,343.03
2019-02-11T20:07:23.754Z,223.03
2019-02-11T20:11:31.576Z,179.63
2019-02-11T20:15:39.810Z,230.23
2019-02-11T20:19:47.586Z,245.57
2019-02-11T20:23:56.343Z,91.77
2019-02-11T20:28:04.667Z,55.90
2019-02-11T20:32:12.309Z,52.60
2019-02-11T20:36:21.255Z,50.33
2019-02-11T20:40:29.707Z,51.53
2019-02-11T20:44:37.964Z,44.27
2019-02-11T20:48:45.552Z,53.50
2019-02-11T20:52:53.762Z,82.40
2019-02-11T20:57:03.227Z,58.10
2019-02-11T21:01:11.240Z,59.17
2019-02-11T21:05:19.532Z,57.90
2019-02-11T21:09:27.570Z,49.70
2019-02-11T21:13:36.298Z,46.77
2019-02-11T21:17:44.425Z,44.97
2019-02-11T21:21:52.241Z,14.00
2019-02-11T21:26:00.343Z,19.00
2019-02-11T21:30:10.018Z,16.83
2019-02-11T21:34:18.630Z,13.47
2019-02-11T21:38:26.944Z,13.50
2019-02-11T21:42:35.065Z,16.73
2019-02-11T21:46:43.284Z,11.23
2019-02-11T21:50:51.093Z,24.30
2019-02-11T21:54:59.232Z,16.07
2019-02-11T21:59:07.110Z,13.07
2019-02-11T22:03:16.274Z,16.67
2019-02-11T22:07:24.737Z,17.70
2019-02-11T22:11:32.689Z,15.67
2019-02-11T22:15:40.930Z,21.73
2019-02-11T22:19:48.733Z,14.73
2019-02-11T22:23:56.784Z,17.67
2019-02-11T22:28:04.965Z,19.10
2019-02-11T22:32:12.663Z,16.13
2019-02-11T22:36:21.050Z,25.97
2019-02-11T22:40:29.498Z,33.07
2019-02-11T22:44:37.432Z,26.87
2019-02-11T22:48:45.746Z,18.87
2019-02-11T22:52:54.058Z,31.97
2019-02-11T22:57:01.685Z,19.37
2019-02-11T23:01:10.815Z,14.93
2019-02-11T23:05:18.839Z,17.43
2019-02-11T23:09:26.532Z,16.00
2019-02-11T23:13:34.945Z,16.37
2019-02-11T23:17:43.285Z,17.57
2019-02-11T23:21:51.189Z,20.30
2019-02-11T23:25:59.508Z,23.47
2019-02-11T23:30:13.622Z,21.80
2019-02-11T23:34:17.606Z,14.33
2019-02-11T23:38:25.611Z,16.90
2019-02-11T23:42:33.612Z,17.97
2019-02-11T23:46:41.864Z,18.73
2019-02-11T23:50:50.183Z,19.20
2019-02-11T23:54:58.190Z,15.53
2019-02-11T23:59:06.827Z,12.00
